createdAt,value
2022-09-11T00:00:41.873Z,16.07
2022-09-11T00:03:08.293Z,15.97
2022-09-11T00:05:39.349Z,16.00
2022-09-11T00:08:07.721Z,15.99
2022-09-11T00:10:37.284Z,16.02
2022-09-11T00:13:04.247Z,15.99
2022-09-11T00:15:30.714Z,15.97
2022-09-11T00:17:57.110Z,15.95
2022-09-11T00:20:23.500Z,15.95
2022-09-11T00:22:49.911Z,15.94
2022-09-11T00:25:16.432Z,15.90
2022-09-11T00:27:42.808Z,15.85
2022-09-11T00:30:10.072Z,15.83
2022-09-11T00:32:36.449Z,15.81
2022-09-11T00:35:02.843Z,15.75
2022-09-11T00:37:29.217Z,15.70
2022-09-11T00:39:55.644Z,15.65
2022-09-11T00:42:22.036Z,15.65
2022-09-11T00:45:00.330Z,15.66
2022-09-11T00:47:26.776Z,15.62
2022-09-11T00:49:54.301Z,15.58
2022-09-11T00:52:27.156Z,15.57
2022-09-11T00:54:56.399Z,15.53
2022-09-11T00:57:24.553Z,15.48
2022-09-11T00:59:51.019Z,15.45
2022-09-11T01:02:18.960Z,15.46
2022-09-11T01:04:45.362Z,15.42
2022-09-11T01:07:12.541Z,15.43
2022-09-11T01:09:39.054Z,15.37
2022-09-11T01:12:14.852Z,15.34
2022-09-11T01:14:59.854Z,15.26
2022-09-11T01:18:00.304Z,15.23
2022-09-11T01:21:03.773Z,15.18
2022-09-11T01:23:39.396Z,15.19
2022-09-11T01:26:24.603Z,15.23
2022-09-11T01:29:02.171Z,15.21
2022-09-11T01:31:31.719Z,15.18
2022-09-11T01:34:00.167Z,15.20
2022-09-11T01:36:29.351Z,15.23
2022-09-11T01:38:58.116Z,15.26
2022-09-11T01:41:35.958Z,15.23
2022-09-11T01:44:36.481Z,15.21
2022-09-11T01:47:04.306Z,15.16
2022-09-11T01:49:49.301Z,15.15
2022-09-11T01:52:20.891Z,15.15
2022-09-11T01:54:51.132Z,15.15
2022-09-11T01:57:22.230Z,15.17
2022-09-11T01:59:50.932Z,15.11
2022-09-11T02:02:20.601Z,15.01
2022-09-11T02:04:50.079Z,15.02
2022-09-11T02:07:19.319Z,14.99
2022-09-11T02:09:57.274Z,14.99
2022-09-11T02:12:25.887Z,15.00
2022-09-11T02:14:53.367Z,15.04
2022-09-11T02:17:50.283Z,15.12
2022-09-11T02:20:16.741Z,15.14
2022-09-11T02:22:43.230Z,15.14
2022-09-11T02:25:09.787Z,15.10
2022-09-11T02:27:36.996Z,15.13
2022-09-11T02:30:03.724Z,15.19
2022-09-11T02:32:30.151Z,15.21
2022-09-11T02:34:56.551Z,15.27
2022-09-11T02:37:41.668Z,15.16
2022-09-11T02:40:39.568Z,15.18
2022-09-11T02:43:33.456Z,15.14
2022-09-11T02:46:31.022Z,15.05
2022-09-11T02:49:20.588Z,14.97
2022-09-11T02:51:54.191Z,14.94
2022-09-11T02:54:28.274Z,14.87
2022-09-11T02:57:02.234Z,14.79
2022-09-11T02:59:40.962Z,14.88
2022-09-11T03:02:10.314Z,14.89
2022-09-11T03:04:37.188Z,14.76
2022-09-11T03:07:03.680Z,14.67
2022-09-11T03:09:30.192Z,14.56
2022-09-11T03:11:56.611Z,14.53
2022-09-11T03:14:22.975Z,14.55
2022-09-11T03:16:49.985Z,14.50
2022-09-11T03:19:16.440Z,14.44
2022-09-11T03:21:42.955Z,14.47
2022-09-11T03:24:09.629Z,14.33
2022-09-11T03:26:36.817Z,14.25
2022-09-11T03:29:03.638Z,14.22
2022-09-11T03:31:30.205Z,14.29
2022-09-11T03:33:57.186Z,14.30
2022-09-11T03:36:23.846Z,14.21
2022-09-11T03:38:50.223Z,14.22
2022-09-11T03:41:16.604Z,14.13
2022-09-11T03:43:43.163Z,14.16
2022-09-11T03:46:09.717Z,14.22
2022-09-11T03:48:36.200Z,14.24
2022-09-11T03:51:04.711Z,14.22
2022-09-11T03:53:32.886Z,14.25
2022-09-11T03:56:00.294Z,14.27
2022-09-11T03:58:26.729Z,14.30
2022-09-11T04:00:53.161Z,14.27
2022-09-11T04:03:19.555Z,14.27
2022-09-11T04:05:56.688Z,14.29
2022-09-11T04:08:23.056Z,14.29
2022-09-11T04:10:49.442Z,14.27
2022-09-11T04:13:16.669Z,14.40
2022-09-11T04:15:43.086Z,14.34
2022-09-11T04:18:09.570Z,14.36
2022-09-11T04:20:38.822Z,14.43
2022-09-11T04:23:05.188Z,14.45
2022-09-11T04:25:31.565Z,14.45
2022-09-11T04:27:57.948Z,14.46
2022-09-11T04:30:24.395Z,14.49
2022-09-11T04:32:50.767Z,14.49
2022-09-11T04:35:17.167Z,14.50
2022-09-11T04:37:43.574Z,14.47
2022-09-11T04:40:10.184Z,14.53
2022-09-11T04:42:36.670Z,14.56
2022-09-11T04:45:04.509Z,14.59
2022-09-11T04:47:30.904Z,14.48
2022-09-11T04:49:57.407Z,14.56
2022-09-11T04:52:25.067Z,14.48
2022-09-11T04:54:51.456Z,14.58
2022-09-11T04:57:17.815Z,14.65
2022-09-11T04:59:44.202Z,14.58
2022-09-11T05:02:10.885Z,14.57
2022-09-11T05:04:37.347Z,14.62
2022-09-11T05:07:03.840Z,14.67
2022-09-11T05:09:30.268Z,14.69
2022-09-11T05:11:57.099Z,14.74
2022-09-11T05:14:23.503Z,14.73
2022-09-11T05:16:52.487Z,14.73
2022-09-11T05:19:19.061Z,14.73
2022-09-11T05:21:45.463Z,14.69
2022-09-11T05:24:11.842Z,14.63
2022-09-11T05:26:38.388Z,14.61
2022-09-11T05:29:09.701Z,14.64
2022-09-11T05:31:37.185Z,14.61
2022-09-11T05:34:03.768Z,14.60
2022-09-11T05:36:33.466Z,14.69
2022-09-11T05:38:59.889Z,14.66
2022-09-11T05:41:26.354Z,14.68
2022-09-11T05:43:52.759Z,14.69
2022-09-11T05:46:19.923Z,14.67
2022-09-11T05:48:46.382Z,14.64
2022-09-11T05:51:14.300Z,14.70
2022-09-11T05:53:41.001Z,14.72
2022-09-11T05:56:12.185Z,14.74
2022-09-11T05:58:38.584Z,14.78
2022-09-11T06:01:18.802Z,14.80
2022-09-11T06:03:47.348Z,14.83
2022-09-11T06:06:13.783Z,14.86
2022-09-11T06:08:42.668Z,14.84
2022-09-11T06:11:09.097Z,14.85
2022-09-11T06:13:39.431Z,14.88
2022-09-11T06:16:11.247Z,14.94
2022-09-11T06:18:39.934Z,14.97
2022-09-11T06:21:07.996Z,14.96
2022-09-11T06:23:35.189Z,14.99
2022-09-11T06:26:12.659Z,14.98
2022-09-11T06:28:39.436Z,15.02
2022-09-11T06:31:08.223Z,15.06
2022-09-11T06:33:36.152Z,15.09
2022-09-11T06:36:04.252Z,15.04
2022-09-11T06:38:31.875Z,15.11
2022-09-11T06:41:02.237Z,15.10
2022-09-11T06:43:28.806Z,15.12
2022-09-11T06:45:55.225Z,15.12
2022-09-11T06:48:21.636Z,15.15
2022-09-11T06:50:48.016Z,15.15
2022-09-11T06:53:15.206Z,15.20
2022-09-11T06:55:41.653Z,15.21
2022-09-11T06:58:08.489Z,15.25
2022-09-11T07:00:36.106Z,15.22
2022-09-11T07:03:03.464Z,15.28
2022-09-11T07:05:30.069Z,15.21
2022-09-11T07:07:56.648Z,15.22
2022-09-11T07:10:23.281Z,15.18
2022-09-11T07:12:52.018Z,15.28
2022-09-11T07:15:18.503Z,15.24
2022-09-11T07:17:44.894Z,15.35
2022-09-11T07:20:11.376Z,15.23
2022-09-11T07:22:38.239Z,15.31
2022-09-11T07:25:07.693Z,15.26
2022-09-11T07:27:34.295Z,15.27
2022-09-11T07:30:00.670Z,15.24
2022-09-11T07:32:27.192Z,15.23
2022-09-11T07:34:53.630Z,15.34
2022-09-11T07:37:20.030Z,15.38
2022-09-11T07:39:47.086Z,15.42
2022-09-11T07:42:13.533Z,15.44
2022-09-11T07:44:39.941Z,15.47
2022-09-11T07:47:06.592Z,15.48
2022-09-11T07:49:32.951Z,15.52
2022-09-11T07:51:59.349Z,15.51
2022-09-11T07:54:29.019Z,15.48
2022-09-11T07:56:56.067Z,15.47
2022-09-11T07:59:22.863Z,15.28
2022-09-11T08:01:50.199Z,15.39
2022-09-11T08:04:16.666Z,15.47
2022-09-11T08:06:43.055Z,15.46
2022-09-11T08:09:11.289Z,15.53
2022-09-11T08:11:43.011Z,15.45
2022-09-11T08:14:11.680Z,15.51
2022-09-11T08:16:38.790Z,15.60
2022-09-11T08:19:05.614Z,15.67
2022-09-11T08:21:32.155Z,15.68
2022-09-11T08:23:58.583Z,15.76
2022-09-11T08:26:26.434Z,15.79
2022-09-11T08:28:53.822Z,15.77
2022-09-11T08:31:21.909Z,15.79
2022-09-11T08:33:49.286Z,15.72
2022-09-11T08:36:15.763Z,15.67
2022-09-11T08:38:43.256Z,15.67
2022-09-11T08:41:11.039Z,15.72
2022-09-11T08:43:39.721Z,15.70
2022-09-11T08:46:07.612Z,15.79
2022-09-11T08:49:02.192Z,15.85
2022-09-11T08:51:28.577Z,15.83
2022-09-11T08:53:55.024Z,15.81
2022-09-11T08:56:22.561Z,15.85
2022-09-11T08:59:45.960Z,15.91
2022-09-11T09:02:18.361Z,16.05
2022-09-11T09:05:14.509Z,16.13
2022-09-11T09:07:45.178Z,16.03
2022-09-11T09:10:33.631Z,16.10
2022-09-11T09:13:20.830Z,16.02
2022-09-11T09:15:53.249Z,16.09
2022-09-11T09:18:34.683Z,16.21
2022-09-11T09:21:06.682Z,16.21
2022-09-11T09:23:37.793Z,16.15
2022-09-11T09:26:04.168Z,16.22
2022-09-11T09:28:52.697Z,16.24
2022-09-11T09:31:23.005Z,16.25
2022-09-11T09:34:00.354Z,16.36
2022-09-11T09:36:43.509Z,16.43
2022-09-11T09:39:12.813Z,16.34
2022-09-11T09:41:59.060Z,16.48
2022-09-11T09:44:50.437Z,16.62
2022-09-11T09:47:16.867Z,16.73
2022-09-11T09:49:43.493Z,16.78
2022-09-11T09:52:24.281Z,16.87
2022-09-11T09:55:00.047Z,16.96
2022-09-11T09:57:29.151Z,17.05
2022-09-11T10:00:06.647Z,17.08
2022-09-11T10:02:49.069Z,17.28
2022-09-11T10:05:16.976Z,17.33
2022-09-11T10:07:50.894Z,17.50
2022-09-11T10:10:29.602Z,17.63
2022-09-11T10:13:17.717Z,17.67
2022-09-11T10:15:44.063Z,17.79
2022-09-11T10:18:29.031Z,17.94
2022-09-11T10:21:22.474Z,18.08
2022-09-11T10:23:50.455Z,18.24
2022-09-11T10:26:18.800Z,18.24
2022-09-11T10:28:46.310Z,18.27
2022-09-11T10:31:18.745Z,18.58
2022-09-11T10:33:56.652Z,18.66
2022-09-11T10:36:25.039Z,18.71
2022-09-11T10:38:51.891Z,18.76
2022-09-11T10:41:34.132Z,18.73
2022-09-11T10:44:02.311Z,18.71
2022-09-11T10:46:29.974Z,18.60
2022-09-11T10:49:06.074Z,18.57
2022-09-11T10:51:42.136Z,18.69
2022-09-11T10:54:16.747Z,18.73
2022-09-11T10:56:57.820Z,18.82
2022-09-11T10:59:31.232Z,18.77
2022-09-11T11:01:58.222Z,18.75
2022-09-11T11:04:25.068Z,18.80
2022-09-11T11:07:07.896Z,18.86
2022-09-11T11:09:40.922Z,18.95
2022-09-11T11:12:20.646Z,19.44
2022-09-11T11:15:04.912Z,20.04
2022-09-11T11:17:55.685Z,19.94
2022-09-11T11:20:48.397Z,19.73
2022-09-11T11:23:21.297Z,19.83
2022-09-11T11:26:11.640Z,20.02
2022-09-11T11:28:44.128Z,20.59
2022-09-11T11:31:52.816Z,21.10
2022-09-11T11:34:22.258Z,20.57
2022-09-11T11:36:54.009Z,20.66
2022-09-11T11:39:38.847Z,21.12
2022-09-11T11:42:26.873Z,20.96
2022-09-11T11:45:00.300Z,21.92
2022-09-11T11:47:30.613Z,22.40
2022-09-11T11:50:05.281Z,21.89
2022-09-11T11:52:31.804Z,21.42
2022-09-11T11:55:12.395Z,21.58
2022-09-11T11:57:41.555Z,22.18
2022-09-11T12:00:13.098Z,22.43
2022-09-11T12:02:56.397Z,22.53
2022-09-11T12:05:27.505Z,22.45
2022-09-11T12:07:53.903Z,22.24
2022-09-11T12:10:26.261Z,22.21
2022-09-11T12:12:55.209Z,22.19
2022-09-11T12:15:25.992Z,21.75
2022-09-11T12:18:24.841Z,22.95
2022-09-11T12:20:51.386Z,23.29
2022-09-11T12:23:29.913Z,23.64
2022-09-11T12:26:26.035Z,23.09
2022-09-11T12:29:14.510Z,23.18
2022-09-11T12:31:49.784Z,22.95
2022-09-11T12:34:17.448Z,23.43
2022-09-11T12:36:48.264Z,23.51
2022-09-11T12:39:54.628Z,24.04
2022-09-11T12:42:24.024Z,23.57
2022-09-11T12:44:50.429Z,23.70
2022-09-11T12:47:27.424Z,23.53
2022-09-11T12:50:16.134Z,23.50
2022-09-11T12:52:45.541Z,23.12
2022-09-11T12:55:27.075Z,23.58
2022-09-11T12:57:53.458Z,23.31
2022-09-11T13:00:24.470Z,23.10
2022-09-11T13:02:53.232Z,22.90
2022-09-11T13:05:30.089Z,23.70
2022-09-11T13:07:57.907Z,24.01
2022-09-11T13:10:33.472Z,24.32
2022-09-11T13:13:02.399Z,23.43
2022-09-11T13:15:33.238Z,22.94
2022-09-11T13:17:59.744Z,23.26
2022-09-11T13:20:26.215Z,23.80
2022-09-11T13:22:57.604Z,23.31
2022-09-11T13:25:27.919Z,22.88
2022-09-11T13:27:59.683Z,22.35
2022-09-11T13:30:26.904Z,22.39
2022-09-11T13:33:07.524Z,23.23
2022-09-11T13:35:34.254Z,23.87
2022-09-11T13:38:10.955Z,24.34
2022-09-11T13:40:47.485Z,24.73
2022-09-11T13:43:20.173Z,24.57
2022-09-11T13:45:46.680Z,24.35
2022-09-11T13:48:20.250Z,24.15
2022-09-11T13:50:48.420Z,23.83
2022-09-11T13:53:14.827Z,24.19
2022-09-11T13:55:45.772Z,24.52
2022-09-11T13:58:26.077Z,24.58
2022-09-11T14:00:52.771Z,24.46
2022-09-11T14:03:29.428Z,24.12
2022-09-11T14:05:58.004Z,23.46
2022-09-11T14:08:35.902Z,23.19
2022-09-11T14:11:11.640Z,22.94
2022-09-11T14:13:51.385Z,22.63
2022-09-11T14:16:32.042Z,22.38
2022-09-11T14:19:11.157Z,22.30
2022-09-11T14:21:38.843Z,22.06
2022-09-11T14:24:16.424Z,21.95
2022-09-11T14:26:42.840Z,22.05
2022-09-11T14:29:12.846Z,22.81
2022-09-11T14:31:40.628Z,23.42
2022-09-11T14:34:10.024Z,23.32
2022-09-11T14:36:47.292Z,23.69
2022-09-11T14:39:23.683Z,23.73
2022-09-11T14:41:50.072Z,23.03
2022-09-11T14:44:16.661Z,22.52
2022-09-11T14:46:43.334Z,22.55
2022-09-11T14:49:10.212Z,22.32
2022-09-11T14:51:37.599Z,22.26
2022-09-11T14:54:08.968Z,22.10
2022-09-11T14:56:35.364Z,22.47
2022-09-11T14:59:01.776Z,23.14
2022-09-11T15:01:28.245Z,23.43
2022-09-11T15:03:55.311Z,23.36
2022-09-11T15:06:21.999Z,23.68
2022-09-11T15:08:48.464Z,23.69
2022-09-11T15:11:15.847Z,24.13
2022-09-11T15:14:04.088Z,24.19
2022-09-11T15:16:30.707Z,24.33
2022-09-11T15:18:57.112Z,24.06
2022-09-11T15:21:23.495Z,24.25
2022-09-11T15:23:50.028Z,24.41
2022-09-11T15:26:16.431Z,24.26
2022-09-11T15:28:42.923Z,23.89
2022-09-11T15:31:11.018Z,23.95
2022-09-11T15:33:37.605Z,24.00
2022-09-11T15:36:05.034Z,23.96
2022-09-11T15:38:32.138Z,23.56
2022-09-11T15:40:58.628Z,23.27
2022-09-11T15:43:26.022Z,23.29
2022-09-11T15:45:52.640Z,23.60
2022-09-11T15:48:19.975Z,23.79
2022-09-11T15:50:46.388Z,23.70
2022-09-11T15:53:13.216Z,23.25
2022-09-11T15:55:39.599Z,22.99
2022-09-11T15:58:06.071Z,22.85
2022-09-11T16:00:33.938Z,23.12
2022-09-11T16:03:00.415Z,23.14
2022-09-11T16:05:26.908Z,23.18
2022-09-11T16:07:53.293Z,23.33
2022-09-11T16:10:20.905Z,23.18
2022-09-11T16:12:47.934Z,23.13
2022-09-11T16:15:17.785Z,23.31
2022-09-11T16:17:44.898Z,23.06
2022-09-11T16:20:12.747Z,22.82
2022-09-11T16:22:39.159Z,22.38
2022-09-11T16:25:05.918Z,22.17
2022-09-11T16:27:34.586Z,22.02
2022-09-11T16:30:41.548Z,21.93
2022-09-11T16:32:48.801Z,21.91
2022-09-11T16:35:15.290Z,21.79
2022-09-11T16:37:41.823Z,21.89
2022-09-11T16:40:09.515Z,21.86
2022-09-11T16:42:36.751Z,21.50
2022-09-11T16:45:03.411Z,21.30
2022-09-11T16:47:30.527Z,21.21
2022-09-11T16:50:12.324Z,21.30
2022-09-11T16:52:39.290Z,21.26
2022-09-11T16:55:07.022Z,21.05
2022-09-11T16:57:35.391Z,21.04
2022-09-11T17:00:02.055Z,20.97
2022-09-11T17:02:28.443Z,20.97
2022-09-11T17:04:54.876Z,20.82
2022-09-11T17:07:21.252Z,20.75
2022-09-11T17:09:48.350Z,20.78
2022-09-11T17:12:17.596Z,20.68
2022-09-11T17:14:44.003Z,20.57
2022-09-11T17:17:10.553Z,20.40
2022-09-11T17:19:36.973Z,20.26
2022-09-11T17:22:03.915Z,20.16
2022-09-11T17:24:32.042Z,20.20
2022-09-11T17:26:58.849Z,20.06
2022-09-11T17:29:25.232Z,19.97
2022-09-11T17:32:05.119Z,19.93
2022-09-11T17:34:38.086Z,20.04
2022-09-11T17:37:04.981Z,19.96
2022-09-11T17:39:31.381Z,19.91
2022-09-11T17:41:57.757Z,19.79
2022-09-11T17:44:24.758Z,19.64
2022-09-11T17:46:52.108Z,19.65
2022-09-11T17:49:18.497Z,19.55
2022-09-11T17:51:44.864Z,19.43
2022-09-11T17:54:11.241Z,19.46
2022-09-11T17:56:37.706Z,19.44
2022-09-11T17:59:04.060Z,19.36
2022-09-11T18:01:31.609Z,19.05
2022-09-11T18:03:58.516Z,18.81
2022-09-11T18:06:33.974Z,18.58
2022-09-11T18:09:05.963Z,18.41
2022-09-11T18:11:32.656Z,18.22
2022-09-11T18:14:00.050Z,18.06
2022-09-11T18:16:26.576Z,17.96
2022-09-11T18:18:53.053Z,17.85
2022-09-11T18:21:19.452Z,17.78
2022-09-11T18:23:46.502Z,17.66
2022-09-11T18:26:25.641Z,17.57
2022-09-11T18:29:14.331Z,17.49
2022-09-11T18:31:45.015Z,17.37
2022-09-11T18:34:16.783Z,17.28
2022-09-11T18:36:43.423Z,17.24
2022-09-11T18:39:10.086Z,17.19
2022-09-11T18:41:36.945Z,17.16
2022-09-11T18:44:06.395Z,17.12
2022-09-11T18:46:32.934Z,17.03
2022-09-11T18:49:00.012Z,16.96
2022-09-11T18:51:27.054Z,16.89
2022-09-11T18:53:54.314Z,16.84
2022-09-11T18:56:22.575Z,16.78
2022-09-11T18:58:50.427Z,16.69
2022-09-11T19:01:17.899Z,16.64
2022-09-11T19:03:44.436Z,16.57
2022-09-11T19:06:14.043Z,16.56
2022-09-11T19:08:41.452Z,16.54
2022-09-11T19:11:09.277Z,16.53
2022-09-11T19:13:36.461Z,16.47
2022-09-11T19:16:04.182Z,16.41
2022-09-11T19:18:31.495Z,16.36
2022-09-11T19:21:02.952Z,16.31
2022-09-11T19:23:33.552Z,16.27
2022-09-11T19:26:22.764Z,16.27
2022-09-11T19:28:49.619Z,16.22
2022-09-11T19:31:18.172Z,16.19
2022-09-11T19:33:44.631Z,16.13
2022-09-11T19:36:16.671Z,16.11
2022-09-11T19:38:44.098Z,16.12
2022-09-11T19:41:12.822Z,16.12
2022-09-11T19:43:40.918Z,16.14
2022-09-11T19:46:09.306Z,16.14
2022-09-11T19:48:39.068Z,16.15
2022-09-11T19:51:09.884Z,16.18
2022-09-11T19:53:37.116Z,16.20
2022-09-11T19:56:03.551Z,16.25
2022-09-11T19:58:30.092Z,16.30
2022-09-11T20:00:56.594Z,16.29
2022-09-11T20:03:23.072Z,16.31
2022-09-11T20:05:49.874Z,16.30
2022-09-11T20:08:17.217Z,16.28
2022-09-11T20:10:45.377Z,16.24
2022-09-11T20:13:11.789Z,16.13
2022-09-11T20:15:38.741Z,16.06
2022-09-11T20:18:05.225Z,15.99
2022-09-11T20:20:32.599Z,15.91
2022-09-11T20:23:00.427Z,15.84
2022-09-11T20:25:27.136Z,15.79
2022-09-11T20:27:53.656Z,15.76
2022-09-11T20:30:20.051Z,15.70
2022-09-11T20:32:46.534Z,15.66
2022-09-11T20:35:12.931Z,15.62
2022-09-11T20:37:39.322Z,15.58
2022-09-11T20:40:07.316Z,15.52
2022-09-11T20:42:33.742Z,15.43
2022-09-11T20:45:00.680Z,15.41
2022-09-11T20:47:27.576Z,15.39
2022-09-11T20:49:53.962Z,15.35
2022-09-11T20:52:20.396Z,15.35
2022-09-11T20:54:48.906Z,15.31
2022-09-11T20:57:15.274Z,15.32
2022-09-11T20:59:43.313Z,15.29
2022-09-11T21:02:10.973Z,15.27
2022-09-11T21:04:37.739Z,15.24
2022-09-11T21:07:04.211Z,15.22
2022-09-11T21:09:30.898Z,15.23
2022-09-11T21:11:57.292Z,15.21
2022-09-11T21:14:23.703Z,15.18
2022-09-11T21:16:50.088Z,15.16
2022-09-11T21:19:16.725Z,15.16
2022-09-11T21:21:43.172Z,15.16
2022-09-11T21:24:11.631Z,15.17
2022-09-11T21:26:38.052Z,15.04
2022-09-11T21:29:06.487Z,15.03
2022-09-11T21:31:33.243Z,15.00
2022-09-11T21:33:59.849Z,14.94
2022-09-11T21:36:26.431Z,14.89
2022-09-11T21:38:53.191Z,14.87
2022-09-11T21:41:19.612Z,14.86
2022-09-11T21:43:46.330Z,14.85
2022-09-11T21:46:13.042Z,14.79
2022-09-11T21:48:40.425Z,14.76
2022-09-11T21:51:10.031Z,14.75
2022-09-11T21:53:37.531Z,14.77
2022-09-11T21:56:04.027Z,14.74
2022-09-11T21:58:30.986Z,14.71
2022-09-11T22:01:02.530Z,14.68
2022-09-11T22:03:29.008Z,14.62
2022-09-11T22:05:55.608Z,14.51
2022-09-11T22:08:22.177Z,14.48
2022-09-11T22:10:49.857Z,14.45
2022-09-11T22:13:19.728Z,14.43
2022-09-11T22:15:49.218Z,14.39
2022-09-11T22:18:16.180Z,14.35
2022-09-11T22:20:42.863Z,14.32
2022-09-11T22:23:13.453Z,14.26
2022-09-11T22:25:40.802Z,14.24
2022-09-11T22:28:07.312Z,14.30
2022-09-11T22:30:33.723Z,14.28
2022-09-11T22:33:00.333Z,14.29
2022-09-11T22:35:27.079Z,14.27
2022-09-11T22:37:53.457Z,14.25
2022-09-11T22:40:19.821Z,14.23
2022-09-11T22:42:46.213Z,14.16
2022-09-11T22:45:12.584Z,14.15
2022-09-11T22:47:38.959Z,14.13
2022-09-11T22:50:05.906Z,14.14
2022-09-11T22:52:32.300Z,14.11
2022-09-11T22:54:58.679Z,14.10
2022-09-11T22:57:28.859Z,14.05
2022-09-11T22:59:55.974Z,13.98
2022-09-11T23:02:22.398Z,13.95
2022-09-11T23:05:07.555Z,13.90
2022-09-11T23:07:34.730Z,13.89
2022-09-11T23:10:01.791Z,13.86
2022-09-11T23:12:28.237Z,13.86
2022-09-11T23:14:54.673Z,13.84
2022-09-11T23:17:21.116Z,13.84
2022-09-11T23:19:48.026Z,13.79
2022-09-11T23:22:14.409Z,13.81
2022-09-11T23:24:40.805Z,13.81
2022-09-11T23:27:07.191Z,13.79
2022-09-11T23:29:33.575Z,13.75
2022-09-11T23:32:00.140Z,13.73
2022-09-11T23:34:26.526Z,13.68
2022-09-11T23:36:52.996Z,13.62
2022-09-11T23:39:19.390Z,13.61
2022-09-11T23:41:45.847Z,13.57
2022-09-11T23:44:12.253Z,13.58
2022-09-11T23:46:38.634Z,13.58
2022-09-11T23:49:06.367Z,13.54
2022-09-11T23:51:32.813Z,13.49
2022-09-11T23:53:59.185Z,13.45
2022-09-11T23:56:25.613Z,13.42
2022-09-11T23:58:52.230Z,13.38
